• Join FlightAware (Why Join?)
  • Login
  • US Flag 
12:12AM EDT


 

Airport Tracker/Info


-or-


 

Live Flight TrackerFlight Track Log ✈ AWE3268 ✈ 09-Jun-2014 ✈ KDTW - KPHL

Flight Track Log - Related Links

Times and Time Zones

All times are in EDT time to prevent confusion due to time zone crossing. See the AWE3268 flight status page for this flight to view local times or setup timezone preferences in your user account.

Time Position Orientation Groundspeed Altitude Reporting Facility
EDT Latitude Longitude Course Direction KTS MPH feet Rate Location/Type
01:45PM 42.2283 -83.3506 90° East 154 177 1,400  Level Cleveland Center
01:47PM 42.2953 -83.2978 30° Northeast 239 275 3,800 1,560 Climbing Cleveland Center
01:47PM 42.3025 -83.2922 30° Northeast 223 257 4,200 2,460 Climbing Cleveland Center
01:47PM 42.3222 -83.2481 59° Northeast 251 289 5,600 2,880 Climbing Cleveland Center
01:48PM 42.3164 -83.1897 98° East 260 299 7,200 2,400 Climbing Cleveland Center
01:48PM 42.3092 -83.1444 102° East 268 308 8,300 2,280 Climbing Cleveland Center
01:49PM 42.3039 -83.0872 97° East 270 311 9,600 2,220 Climbing Cleveland Center
01:49PM 42.2961 -83.0383 102° East 290 334 10,600 1,740 Climbing Cleveland Center
01:50PM 42.2167 -82.7071 90° East  Level FlightAware Approximate
01:50PM 42.2906 -82.9750 97° East 296 341 11,400  Level Cleveland Center
01:51PM 42.2747 -82.8506 100° East 332 382 13,300 1,800 Climbing Cleveland Center
01:52PM 42.2589 -82.7225 99° East 345 397 15,200 1,920 Climbing Cleveland Center
01:53PM 42.2425 -82.5906 99° East 354 407 17,300 1,680 Climbing Cleveland Center
01:54PM 42.2261 -82.4556 99° East 362 417 18,800 1,500 Climbing Cleveland Center
01:55PM 42.2133 -82.2861 96° East 374 430 20,500 1,380 Climbing Cleveland Center
01:56PM 42.2031 -82.1378 95° East 394 453 21,700 1,140 Climbing Cleveland Center
01:57PM 42.1931 -81.9906 95° East 407 468 22,900 1,320 Climbing Cleveland Center
01:58PM 42.1142 -81.8494 127° Southeast 407 468 24,500 1,380 Climbing Cleveland Center
01:59PM 42.0289 -81.7489 139° Southeast 404 465 25,800 1,440 Climbing Cleveland Center
02:00PM 41.9419 -81.6481 139° Southeast 405 466 27,600 1,740 Climbing Cleveland Center
02:01PM 41.8569 -81.5500 139° Southeast 404 465 29,500 1,620 Climbing Cleveland Center
02:02PM 41.7783 -81.4489 136° Southeast 390 449 31,000 720 Climbing Cleveland Center
02:03PM 41.7244 -81.3047 117° Southeast 425 489 31,000  Level Cleveland Center
02:04PM 41.6464 -81.1714 128° Southeast 445 512 31,000  Level Cleveland Center
02:05PM 41.5711 -81.0336 126° Southeast 450 518 31,000  Level Cleveland Center
02:07PM 41.4839 -80.8733 126° Southeast 451 519 31,000  Level Cleveland Center
02:08PM 41.4069 -80.7375 127° Southeast 451 519 31,000  Level Cleveland Center
02:09PM 41.3303 -80.6008 127° Southeast 453 521 31,000  Level Cleveland Center
02:10PM 41.2533 -80.4628 127° Southeast 457 526 31,000  Level Cleveland Center
02:11PM 41.1728 -80.3192 127° Southeast 458 527 31,000  Level Cleveland Center
02:12PM 41.0964 -80.1842 127° Southeast 457 526 31,000  Level Cleveland Center
02:13PM 41.0203 -80.0489 127° Southeast 456 525 31,000  Level Cleveland Center
02:14PM 40.9439 -79.9139 127° Southeast 456 525 31,000  Level Cleveland Center
02:15PM 40.8678 -79.7806 127° Southeast 456 525 31,000  Level Cleveland Center
02:16PM 40.7919 -79.6483 127° Southeast 454 522 31,000  Level Cleveland Center
02:17PM 40.6992 -79.4875 127° Southeast 454 522 31,000  Level Cleveland Center
02:18PM 40.6217 -79.3544 127° Southeast 455 524 31,000  Level Cleveland Center
02:19PM 40.5422 -79.2189 128° Southeast 454 522 31,000  Level Cleveland Center
02:20PM 40.4775 -79.0744 120° Southeast 472 543 31,000  Level Cleveland Center
02:21PM 40.4522 -78.9083 101° East 469 540 31,000  Level Cleveland Center
02:22PM 40.4286 -78.7389 100° East 475 547 31,000  Level Cleveland Center
02:23PM 40.3992 -78.5325 101° East 483 556 31,000 -240 Level Cleveland Center
02:24PM 40.3742 -78.3636 101° East 482 555 30,500 -1,440 Descending Cleveland Center
02:25PM 40.3486 -78.1947 101° East 480 552 28,000 -2,460 Descending Cleveland Center
02:26PM 40.3233 -78.0306 101° East 468 539 25,500 -1,500 Descending Cleveland Center
02:27PM 40.3122 -77.8417 94° East 442 509 25,000 -300 Descending Cleveland Center
02:28PM 40.2956 -77.6844 98° East 442 509 25,000  Level Cleveland Center
02:29PM 40.2775 -77.5308 99° East 443 510 25,000 -900 Level Cleveland Center
02:30PM 40.2586 -77.3722 99° East 442 509 23,200 -2,040 Descending Cleveland Center
02:31PM 40.2386 -77.2228 100° East 423 487 20,900 -2,400 Descending Cleveland Center
02:32PM 40.2175 -77.0431 99° East 416 479 18,300 -2,280 Descending Cleveland Center
02:33PM 40.2133 -76.9053 92° East 388 447 16,200 -1,920 Descending Cleveland Center
02:34PM 40.2517 -76.7789 68° East 374 430 14,300 -1,440 Descending Cleveland Center
02:36PM 40.2978 -76.6222 69° East 369 425 13,000 -600 Descending New York Center
02:37PM 40.3322 -76.5133 67° East 364 419 13,000  Level New York Center
02:38PM 40.3694 -76.3911 68° East 364 419 13,000  Level New York Center
02:39PM 40.4064 -76.2686 68° East 364 419 13,000  Level New York Center
02:40PM 40.4439 -76.1353 70° East 359 413 13,000  Level New York Center
02:41PM 40.4469 -76.0183 88° East 352 405 13,000  Level New York Center
02:42PM 40.4472 -75.8683 90° East 361 415 13,000  Level New York Center
02:43PM 40.4483 -75.7483 89° East 367 422 13,000 -720 Level New York Center
02:44PM 40.4494 -75.6203 89° East 367 422 11,600 -1,380 Descending New York Center
02:45PM 40.4275 -75.4958 103° East 354 407 10,300 -1,440 Descending New York Center
02:46PM 40.3614 -75.4289 142° Southeast 294 338 8,700 -1,680 Descending New York Center
02:47PM 40.2925 -75.4322 182° South 269 310 7,000 -900 Descending New York Center
02:48PM 40.2172 -75.4381 183° South 275 316 7,000 -480 Level New York Center
02:49PM 40.1311 -75.4486 185° South 287 330 6,100 -540 Descending New York Center
02:50PM 40.0683 -75.4581 187° South 272 313 6,000 -60 Descending New York Center
02:51PM 39.9906 -75.4717 188° South 266 306 6,000  Level New York Center
02:52PM 39.9383 -75.4764 184° South 211 243 6,000  Level New York Center
02:53PM 39.9092 -75.5311 235° Southwest 163 188 6,000  Level New York Center
02:54PM 39.8997 -75.6036 260° West 195 224 6,000 -360 Level New York Center
02:55PM 39.8728 -75.6531 235° Southwest 191 220 5,300 -1,020 Descending New York Center
02:56PM 39.8172 -75.6358 167° South 172 198 4,000 -960 Descending New York Center
02:57PM 39.8167 -75.5333 90° East 174 200 2,800 -840 Descending Philadelphia TRACON
02:58PM 39.8167 -75.4833 90° East 169 194 2,100 -480 Descending Philadelphia TRACON
02:59PM 39.8333 -75.4333 67° East 169 194 2,000 -240 Descending Philadelphia TRACON
03:00PM 39.8500 -75.3667 72° East 154 177 1,700 -600 Descending Philadelphia TRACON
03:01PM 39.8500 -75.3167 90° East 138 159 700 -960 Descending Philadelphia TRACON